sensor_id;sensor_type;location;lat;lon;timestamp;pressure;altitude;pressure_sealevel;temperature;humidity
34103;BME280;20381;54.498;18.206;2023-03-19T00:00:42;99541.99;;;5.81;54.55
34103;BME280;20381;54.498;18.206;2023-03-19T00:03:10;99553.20;;;5.82;54.53
34103;BME280;20381;54.498;18.206;2023-03-19T00:05:37;99546.63;;;5.85;54.51
34103;BME280;20381;54.498;18.206;2023-03-19T00:08:04;99551.23;;;5.90;54.66
34103;BME280;20381;54.498;18.206;2023-03-19T00:10:31;99556.25;;;5.96;54.74
34103;BME280;20381;54.498;18.206;2023-03-19T00:12:58;99561.06;;;6.09;54.95
34103;BME280;20381;54.498;18.206;2023-03-19T00:15:24;99561.06;;;6.09;54.95
34103;BME280;20381;54.498;18.206;2023-03-19T00:17:51;99566.95;;;6.14;54.96
34103;BME280;20381;54.498;18.206;2023-03-19T00:20:19;99561.77;;;6.14;54.94
34103;BME280;20381;54.498;18.206;2023-03-19T00:22:46;99561.77;;;6.14;55.01
34103;BME280;20381;54.498;18.206;2023-03-19T00:25:13;99556.23;;;6.11;54.92
34103;BME280;20381;54.498;18.206;2023-03-19T00:27:41;99558.67;;;6.02;55.01
34103;BME280;20381;54.498;18.206;2023-03-19T00:30:10;99552.88;;;5.94;55.01
34103;BME280;20381;54.498;18.206;2023-03-19T00:32:37;99555.80;;;5.82;55.12
34103;BME280;20381;54.498;18.206;2023-03-19T00:35:05;99558.64;;;5.74;55.12
34103;BME280;20381;54.498;18.206;2023-03-19T00:37:34;99557.86;;;5.71;55.27
34103;BME280;20381;54.498;18.206;2023-03-19T00:40:02;99562.07;;;5.75;55.37
34103;BME280;20381;54.498;18.206;2023-03-19T00:42:30;99560.68;;;5.78;55.41
34103;BME280;20381;54.498;18.206;2023-03-19T00:44:57;99559.29;;;5.81;55.44
34103;BME280;20381;54.498;18.206;2023-03-19T00:47:23;99559.58;;;5.85;55.47
34103;BME280;20381;54.498;18.206;2023-03-19T00:49:50;99563.41;;;5.88;55.54
34103;BME280;20381;54.498;18.206;2023-03-19T00:52:17;99562.41;;;5.92;55.59
34103;BME280;20381;54.498;18.206;2023-03-19T00:54:43;99563.59;;;5.97;55.53
34103;BME280;20381;54.498;18.206;2023-03-19T00:57:11;99564.89;;;5.97;55.61
34103;BME280;20381;54.498;18.206;2023-03-19T00:59:37;99563.24;;;5.94;55.63
34103;BME280;20381;54.498;18.206;2023-03-19T01:02:04;99559.91;;;5.89;55.63
34103;BME280;20381;54.498;18.206;2023-03-19T01:04:31;99563.47;;;5.85;55.69
34103;BME280;20381;54.498;18.206;2023-03-19T01:06:58;99558.48;;;5.79;55.79
34103;BME280;20381;54.498;18.206;2023-03-19T01:09:25;99552.48;;;5.64;55.72
34103;BME280;20381;54.498;18.206;2023-03-19T01:11:52;99554.80;;;5.58;55.88
34103;BME280;20381;54.498;18.206;2023-03-19T01:14:18;99556.55;;;5.57;55.99
34103;BME280;20381;54.498;18.206;2023-03-19T01:16:45;99558.17;;;5.60;55.95
34103;BME280;20381;54.498;18.206;2023-03-19T01:19:11;99564.91;;;5.66;56.08
34103;BME280;20381;54.498;18.206;2023-03-19T01:21:39;99578.74;;;5.66;56.00
34103;BME280;20381;54.498;18.206;2023-03-19T01:24:05;99570.47;;;5.53;55.88
34103;BME280;20381;54.498;18.206;2023-03-19T01:26:32;99574.14;;;5.46;56.11
34103;BME280;20381;54.498;18.206;2023-03-19T01:28:59;99579.23;;;5.49;56.25
34103;BME280;20381;54.498;18.206;2023-03-19T01:31:25;99578.14;;;5.56;56.36
34103;BME280;20381;54.498;18.206;2023-03-19T01:33:52;99580.25;;;5.58;56.31
34103;BME280;20381;54.498;18.206;2023-03-19T01:36:18;99583.95;;;5.65;56.25
34103;BME280;20381;54.498;18.206;2023-03-19T01:38:45;99577.29;;;5.71;56.42
34103;BME280;20381;54.498;18.206;2023-03-19T01:41:12;99579.20;;;5.79;56.50
34103;BME280;20381;54.498;18.206;2023-03-19T01:43:39;99581.61;;;5.85;56.56
34103;BME280;20381;54.498;18.206;2023-03-19T01:46:28;99578.44;;;5.90;56.66
34103;BME280;20381;54.498;18.206;2023-03-19T01:48:59;99577.95;;;5.92;56.66
34103;BME280;20381;54.498;18.206;2023-03-19T01:51:31;99575.30;;;5.95;56.59
34103;BME280;20381;54.498;18.206;2023-03-19T01:54:06;99581.28;;;5.97;56.66
34103;BME280;20381;54.498;18.206;2023-03-19T01:56:37;99584.69;;;5.99;56.73
34103;BME280;20381;54.498;18.206;2023-03-19T01:59:26;99582.87;;;6.01;56.73
34103;BME280;20381;54.498;18.206;2023-03-19T02:02:00;99582.00;;;6.02;56.76
34103;BME280;20381;54.498;18.206;2023-03-19T02:04:28;99581.19;;;6.00;56.74
34103;BME280;20381;54.498;18.206;2023-03-19T02:06:58;99581.38;;;5.94;56.71
34103;BME280;20381;54.498;18.206;2023-03-19T02:09:27;99586.63;;;5.91;56.80
34103;BME280;20381;54.498;18.206;2023-03-19T02:11:55;99583.71;;;5.87;56.76
34103;BME280;20381;54.498;18.206;2023-03-19T02:14:22;99583.81;;;5.84;56.90
34103;BME280;20381;54.498;18.206;2023-03-19T02:16:49;99577.33;;;5.84;57.02
34103;BME280;20381;54.498;18.206;2023-03-19T02:19:21;99581.45;;;5.91;57.06
34103;BME280;20381;54.498;18.206;2023-03-19T02:21:52;99573.31;;;6.03;57.20
34103;BME280;20381;54.498;18.206;2023-03-19T02:24:23;99573.22;;;6.07;57.07
34103;BME280;20381;54.498;18.206;2023-03-19T02:26:54;99572.18;;;6.12;57.15
34103;BME280;20381;54.498;18.206;2023-03-19T02:29:23;99565.56;;;6.17;57.23
34103;BME280;20381;54.498;18.206;2023-03-19T02:31:49;99562.28;;;6.25;57.37
34103;BME280;20381;54.498;18.206;2023-03-19T02:36:54;99567.37;;;6.41;57.42
34103;BME280;20381;54.498;18.206;2023-03-19T02:39:42;99564.16;;;6.46;57.41
34103;BME280;20381;54.498;18.206;2023-03-19T02:42:11;99562.75;;;6.49;57.43
34103;BME280;20381;54.498;18.206;2023-03-19T02:44:38;99573.13;;;6.63;57.31
34103;BME280;20381;54.498;18.206;2023-03-19T02:47:05;99567.13;;;6.74;57.11
34103;BME280;20381;54.498;18.206;2023-03-19T02:49:32;99567.13;;;6.74;57.11
34103;BME280;20381;54.498;18.206;2023-03-19T02:52:12;99567.44;;;6.78;57.31
34103;BME280;20381;54.498;18.206;2023-03-19T02:55:06;99566.14;;;6.78;57.23
34103;BME280;20381;54.498;18.206;2023-03-19T02:57:48;99562.63;;;6.79;57.34
34103;BME280;20381;54.498;18.206;2023-03-19T03:00:40;99566.48;;;6.81;57.35
34103;BME280;20381;54.498;18.206;2023-03-19T03:03:24;99568.52;;;6.84;57.38
34103;BME280;20381;54.498;18.206;2023-03-19T03:05:52;99571.50;;;6.85;57.34
34103;BME280;20381;54.498;18.206;2023-03-19T03:08:19;99572.30;;;6.87;57.34
34103;BME280;20381;54.498;18.206;2023-03-19T03:10:47;99565.43;;;6.86;57.38
34103;BME280;20381;54.498;18.206;2023-03-19T03:13:13;99563.89;;;6.81;57.50
34103;BME280;20381;54.498;18.206;2023-03-19T03:15:40;99570.70;;;6.83;57.59
34103;BME280;20381;54.498;18.206;2023-03-19T03:18:06;99571.81;;;6.89;57.68
34103;BME280;20381;54.498;18.206;2023-03-19T03:20:33;99569.98;;;6.91;57.72
34103;BME280;20381;54.498;18.206;2023-03-19T03:23:00;99568.58;;;6.94;57.71
34103;BME280;20381;54.498;18.206;2023-03-19T03:25:26;99574.46;;;7.00;57.73
34103;BME280;20381;54.498;18.206;2023-03-19T03:27:53;99575.16;;;7.05;57.76
34103;BME280;20381;54.498;18.206;2023-03-19T03:30:20;99574.16;;;7.09;57.72
34103;BME280;20381;54.498;18.206;2023-03-19T03:32:46;99563.70;;;7.10;57.64
34103;BME280;20381;54.498;18.206;2023-03-19T03:35:13;99561.22;;;7.07;57.57
34103;BME280;20381;54.498;18.206;2023-03-19T03:37:41;99563.36;;;7.08;57.64
34103;BME280;20381;54.498;18.206;2023-03-19T03:40:10;99574.16;;;7.09;57.70
34103;BME280;20381;54.498;18.206;2023-03-19T03:42:37;99569.70;;;7.12;57.78
34103;BME280;20381;54.498;18.206;2023-03-19T03:45:04;99564.84;;;7.15;57.75
34103;BME280;20381;54.498;18.206;2023-03-19T03:47:32;99559.23;;;7.14;57.70
34103;BME280;20381;54.498;18.206;2023-03-19T03:49:58;99569.70;;;7.12;57.71
34103;BME280;20381;54.498;18.206;2023-03-19T03:52:25;99563.59;;;7.13;57.80
34103;BME280;20381;54.498;18.206;2023-03-19T03:54:53;99566.84;;;7.20;57.84
34103;BME280;20381;54.498;18.206;2023-03-19T03:57:20;99570.39;;;7.17;57.88
34103;BME280;20381;54.498;18.206;2023-03-19T03:59:46;99571.73;;;7.16;57.95
34103;BME280;20381;54.498;18.206;2023-03-19T04:02:13;99568.17;;;7.18;58.03
34103;BME280;20381;54.498;18.206;2023-03-19T04:04:40;99571.91;;;7.23;58.09
34103;BME280;20381;54.498;18.206;2023-03-19T04:07:07;99571.69;;;7.29;58.18
34103;BME280;20381;54.498;18.206;2023-03-19T04:09:34;99572.83;;;7.34;58.11
34103;BME280;20381;54.498;18.206;2023-03-19T04:12:02;99574.97;;;7.34;58.02
34103;BME280;20381;54.498;18.206;2023-03-19T04:14:29;99569.59;;;7.27;57.93
34103;BME280;20381;54.498;18.206;2023-03-19T04:16:56;99576.53;;;7.15;58.06
34103;BME280;20381;54.498;18.206;2023-03-19T04:19:24;99580.84;;;7.03;58.10
34103;BME280;20381;54.498;18.206;2023-03-19T04:21:51;99573.87;;;6.91;58.20
34103;BME280;20381;54.498;18.206;2023-03-19T04:24:18;99575.39;;;6.85;58.30
34103;BME280;20381;54.498;18.206;2023-03-19T04:26:46;99577.00;;;6.89;58.46
34103;BME280;20381;54.498;18.206;2023-03-19T04:29:15;99571.28;;;6.91;58.39
34103;BME280;20381;54.498;18.206;2023-03-19T04:31:43;99572.20;;;6.90;58.42
34103;BME280;20381;54.498;18.206;2023-03-19T04:34:10;99568.69;;;6.91;58.49
34103;BME280;20381;54.498;18.206;2023-03-19T04:36:37;99574.68;;;6.93;58.37
34103;BME280;20381;54.498;18.206;2023-03-19T04:39:04;99576.76;;;6.84;58.32
34103;BME280;20381;54.498;18.206;2023-03-19T04:41:31;99575.92;;;6.70;58.47
34103;BME280;20381;54.498;18.206;2023-03-19T04:43:58;99575.13;;;6.68;58.49
34103;BME280;20381;54.498;18.206;2023-03-19T04:46:24;99588.38;;;6.72;58.56
34103;BME280;20381;54.498;18.206;2023-03-19T04:48:51;99582.66;;;6.76;58.54
34103;BME280;20381;54.498;18.206;2023-03-19T04:51:17;99581.70;;;6.78;58.58
34103;BME280;20381;54.498;18.206;2023-03-19T04:53:46;99585.12;;;6.67;58.74
34103;BME280;20381;54.498;18.206;2023-03-19T04:56:14;99580.20;;;6.58;58.83
34103;BME280;20381;54.498;18.206;2023-03-19T04:58:44;99582.03;;;6.56;58.87
34103;BME280;20381;54.498;18.206;2023-03-19T05:01:11;99576.42;;;6.55;58.91
34103;BME280;20381;54.498;18.206;2023-03-19T05:03:38;99573.65;;;6.47;58.91
34103;BME280;20381;54.498;18.206;2023-03-19T05:06:04;99567.86;;;6.39;58.97
34103;BME280;20381;54.498;18.206;2023-03-19T05:08:31;99572.28;;;6.36;59.06
34103;BME280;20381;54.498;18.206;2023-03-19T05:10:58;99571.05;;;6.34;59.17
34103;BME280;20381;54.498;18.206;2023-03-19T05:13:25;99571.05;;;6.34;59.26
34103;BME280;20381;54.498;18.206;2023-03-19T05:15:52;99568.73;;;6.38;59.21
34103;BME280;20381;54.498;18.206;2023-03-19T05:18:20;99573.64;;;6.34;59.19
34103;BME280;20381;54.498;18.206;2023-03-19T05:20:49;99569.05;;;6.29;59.32
34103;BME280;20381;54.498;18.206;2023-03-19T05:23:15;99563.66;;;6.35;59.51
34103;BME280;20381;54.498;18.206;2023-03-19T05:25:46;99565.06;;;6.45;59.61
34103;BME280;20381;54.498;18.206;2023-03-19T05:28:14;99558.37;;;6.65;59.55
34103;BME280;20381;54.498;18.206;2023-03-19T05:30:40;99558.64;;;6.69;59.65
34103;BME280;20381;54.498;18.206;2023-03-19T05:33:08;99565.72;;;6.77;59.63
34103;BME280;20381;54.498;18.206;2023-03-19T05:35:36;99572.41;;;6.84;59.46
34103;BME280;20381;54.498;18.206;2023-03-19T05:38:03;99570.22;;;6.72;59.53
34103;BME280;20381;54.498;18.206;2023-03-19T05:40:32;99577.62;;;6.58;59.48
34103;BME280;20381;54.498;18.206;2023-03-19T05:43:00;99575.44;;;6.45;59.65
34103;BME280;20381;54.498;18.206;2023-03-19T05:45:27;99590.19;;;6.43;59.73
34103;BME280;20381;54.498;18.206;2023-03-19T05:47:54;99593.70;;;6.42;59.81
34103;BME280;20381;54.498;18.206;2023-03-19T05:50:21;99586.72;;;6.44;59.93
34103;BME280;20381;54.498;18.206;2023-03-19T05:52:48;99593.39;;;6.52;59.95
34103;BME280;20381;54.498;18.206;2023-03-19T05:55:21;99591.70;;;6.50;59.80
34103;BME280;20381;54.498;18.206;2023-03-19T05:58:01;99591.70;;;6.50;59.95
34103;BME280;20381;54.498;18.206;2023-03-19T06:00:17;99594.23;;;6.52;59.95
34103;BME280;20381;54.498;18.206;2023-03-19T06:02:51;99593.59;;;6.59;60.15
34103;BME280;20381;54.498;18.206;2023-03-19T06:05:18;99596.16;;;6.72;60.29
34103;BME280;20381;54.498;18.206;2023-03-19T06:07:46;99591.38;;;6.86;60.40
34103;BME280;20381;54.498;18.206;2023-03-19T06:10:15;99589.89;;;7.04;60.23
34103;BME280;20381;54.498;18.206;2023-03-19T06:12:48;99593.58;;;7.22;60.15
34103;BME280;20381;54.498;18.206;2023-03-19T06:15:16;99601.21;;;7.27;59.94
34103;BME280;20381;54.498;18.206;2023-03-19T06:17:43;99598.38;;;7.21;60.05
34103;BME280;20381;54.498;18.206;2023-03-19T06:20:11;99597.77;;;7.26;59.77
34103;BME280;20381;54.498;18.206;2023-03-19T06:22:43;99602.25;;;6.98;60.06
34103;BME280;20381;54.498;18.206;2023-03-19T06:25:10;99598.30;;;6.86;60.26
34103;BME280;20381;54.498;18.206;2023-03-19T06:27:40;99604.36;;;6.86;60.39
34103;BME280;20381;54.498;18.206;2023-03-19T06:30:09;99610.28;;;6.90;60.54
34103;BME280;20381;54.498;18.206;2023-03-19T06:32:38;99611.41;;;6.94;60.53
34103;BME280;20381;54.498;18.206;2023-03-19T06:35:05;99610.20;;;7.05;60.68
34103;BME280;20381;54.498;18.206;2023-03-19T06:37:33;99617.05;;;7.19;60.79
34103;BME280;20381;54.498;18.206;2023-03-19T06:40:00;99609.42;;;7.39;60.94
34103;BME280;20381;54.498;18.206;2023-03-19T06:42:27;99608.12;;;7.63;60.92
34103;BME280;20381;54.498;18.206;2023-03-19T06:44:53;99609.13;;;7.82;60.85
34103;BME280;20381;54.498;18.206;2023-03-19T06:47:20;99608.66;;;7.95;60.88
34103;BME280;20381;54.498;18.206;2023-03-19T06:49:47;99612.03;;;8.08;60.96
34103;BME280;20381;54.498;18.206;2023-03-19T06:52:13;99615.80;;;8.23;61.00
34103;BME280;20381;54.498;18.206;2023-03-19T06:54:40;99616.98;;;8.37;60.84
34103;BME280;20381;54.498;18.206;2023-03-19T06:57:08;99620.16;;;8.45;60.88
34103;BME280;20381;54.498;18.206;2023-03-19T06:59:36;99621.09;;;8.54;60.94
34103;BME280;20381;54.498;18.206;2023-03-19T07:02:02;99621.42;;;8.57;60.74
34103;BME280;20381;54.498;18.206;2023-03-19T07:04:29;99624.23;;;8.52;60.87
34103;BME280;20381;54.498;18.206;2023-03-19T07:06:56;99626.95;;;8.49;60.84
34103;BME280;20381;54.498;18.206;2023-03-19T07:09:22;99629.30;;;8.55;61.09
34103;BME280;20381;54.498;18.206;2023-03-19T07:11:49;99633.03;;;8.70;61.23
34103;BME280;20381;54.498;18.206;2023-03-19T07:14:18;99636.23;;;8.87;61.25
34103;BME280;20381;54.498;18.206;2023-03-19T07:16:44;99637.03;;;9.09;61.33
34103;BME280;20381;54.498;18.206;2023-03-19T07:19:11;99639.05;;;9.33;61.34
34103;BME280;20381;54.498;18.206;2023-03-19T07:21:38;99642.33;;;9.57;61.25
34103;BME280;20381;54.498;18.206;2023-03-19T07:24:05;99638.48;;;9.85;61.27
34103;BME280;20381;54.498;18.206;2023-03-19T07:26:31;99641.33;;;10.08;61.15
34103;BME280;20381;54.498;18.206;2023-03-19T07:28:58;99635.46;;;10.32;61.12
34103;BME280;20381;54.498;18.206;2023-03-19T07:31:25;99638.42;;;10.52;60.91
34103;BME280;20381;54.498;18.206;2023-03-19T07:33:52;99638.38;;;10.71;60.91
34103;BME280;20381;54.498;18.206;2023-03-19T07:36:18;99638.22;;;10.91;60.86
34103;BME280;20381;54.498;18.206;2023-03-19T07:38:46;99638.62;;;11.10;60.81
34103;BME280;20381;54.498;18.206;2023-03-19T07:41:13;99639.20;;;11.32;60.90
34103;BME280;20381;54.498;18.206;2023-03-19T07:43:41;99637.77;;;11.60;60.85
34103;BME280;20381;54.498;18.206;2023-03-19T07:46:08;99643.08;;;11.92;60.83
34103;BME280;20381;54.498;18.206;2023-03-19T07:48:35;99638.79;;;12.22;60.80
34103;BME280;20381;54.498;18.206;2023-03-19T07:51:02;99637.44;;;12.54;60.50
34103;BME280;20381;54.498;18.206;2023-03-19T07:53:28;99640.34;;;12.80;60.48
34103;BME280;20381;54.498;18.206;2023-03-19T07:55:55;99641.20;;;13.17;60.49
34103;BME280;20381;54.498;18.206;2023-03-19T07:58:22;99632.29;;;13.64;60.54
34103;BME280;20381;54.498;18.206;2023-03-19T08:00:48;99632.95;;;14.24;60.43
34103;BME280;20381;54.498;18.206;2023-03-19T08:03:15;99631.90;;;15.00;60.25
34103;BME280;20381;54.498;18.206;2023-03-19T08:05:47;99633.56;;;15.34;60.00
34103;BME280;20381;54.498;18.206;2023-03-19T08:08:16;99633.84;;;15.50;59.63
34103;BME280;20381;54.498;18.206;2023-03-19T08:10:44;99628.31;;;15.73;60.07
34103;BME280;20381;54.498;18.206;2023-03-19T08:13:17;99628.31;;;16.22;59.93
34103;BME280;20381;54.498;18.206;2023-03-19T08:15:41;99630.90;;;16.59;59.52
34103;BME280;20381;54.498;18.206;2023-03-19T08:18:07;99627.66;;;17.20;59.42
34103;BME280;20381;54.498;18.206;2023-03-19T08:20:33;99622.54;;;17.92;59.37
34103;BME280;20381;54.498;18.206;2023-03-19T08:23:00;99616.44;;;18.46;58.68
34103;BME280;20381;54.498;18.206;2023-03-19T08:25:30;99622.16;;;18.63;57.98
34103;BME280;20381;54.498;18.206;2023-03-19T08:27:58;99615.23;;;19.04;58.08
34103;BME280;20381;54.498;18.206;2023-03-19T08:30:25;99618.74;;;19.56;57.65
34103;BME280;20381;54.498;18.206;2023-03-19T08:32:52;99617.11;;;19.95;57.34
34103;BME280;20381;54.498;18.206;2023-03-19T08:35:19;99605.09;;;20.90;57.55
34103;BME280;20381;54.498;18.206;2023-03-19T08:37:46;99603.14;;;21.86;56.96
34103;BME280;20381;54.498;18.206;2023-03-19T08:40:13;99603.20;;;22.49;56.68
34103;BME280;20381;54.498;18.206;2023-03-19T08:42:42;99598.80;;;23.24;56.04
34103;BME280;20381;54.498;18.206;2023-03-19T08:45:12;99595.53;;;23.99;55.90
34103;BME280;20381;54.498;18.206;2023-03-19T08:47:40;99594.34;;;24.89;55.11
34103;BME280;20381;54.498;18.206;2023-03-19T08:50:10;99596.64;;;25.41;54.59
34103;BME280;20381;54.498;18.206;2023-03-19T08:52:39;99596.02;;;25.14;53.91
34103;BME280;20381;54.498;18.206;2023-03-19T08:55:07;99599.70;;;24.48;52.97
34103;BME280;20381;54.498;18.206;2023-03-19T08:57:35;99597.59;;;24.25;52.90
34103;BME280;20381;54.498;18.206;2023-03-19T09:00:05;99594.62;;;24.32;52.29
34103;BME280;20381;54.498;18.206;2023-03-19T09:02:33;99592.35;;;24.91;52.03
34103;BME280;20381;54.498;18.206;2023-03-19T09:05:01;99586.95;;;25.32;51.32
34103;BME280;20381;54.498;18.206;2023-03-19T09:07:27;99589.67;;;25.07;50.21
34103;BME280;20381;54.498;18.206;2023-03-19T09:09:54;99588.95;;;24.31;49.83
34103;BME280;20381;54.498;18.206;2023-03-19T09:12:21;99586.60;;;24.20;49.84
34103;BME280;20381;54.498;18.206;2023-03-19T09:14:47;99586.33;;;24.44;49.40
34103;BME280;20381;54.498;18.206;2023-03-19T09:17:14;99589.33;;;24.53;48.87
34103;BME280;20381;54.498;18.206;2023-03-19T09:19:42;99600.02;;;24.69;48.56
34103;BME280;20381;54.498;18.206;2023-03-19T09:22:09;99596.33;;;25.11;48.37
34103;BME280;20381;54.498;18.206;2023-03-19T09:24:37;99589.48;;;25.81;47.64
34103;BME280;20381;54.498;18.206;2023-03-19T09:27:04;99584.22;;;26.31;47.48
34103;BME280;20381;54.498;18.206;2023-03-19T09:29:31;99585.64;;;26.88;47.01
34103;BME280;20381;54.498;18.206;2023-03-19T09:31:57;99587.00;;;27.03;46.21
34103;BME280;20381;54.498;18.206;2023-03-19T09:34:25;99587.37;;;27.37;45.89
34103;BME280;20381;54.498;18.206;2023-03-19T09:36:51;99584.24;;;28.04;45.67
34103;BME280;20381;54.498;18.206;2023-03-19T09:39:18;99582.95;;;28.68;44.88
34103;BME280;20381;54.498;18.206;2023-03-19T09:44:27;99583.25;;;29.30;43.94
34103;BME280;20381;54.498;18.206;2023-03-19T09:49:59;99577.36;;;29.89;42.96
34103;BME280;20381;54.498;18.206;2023-03-19T09:52:40;99578.68;;;30.50;42.30
34103;BME280;20381;54.498;18.206;2023-03-19T09:58:00;99570.84;;;32.25;41.43
34103;BME280;20381;54.498;18.206;2023-03-19T10:00:33;99569.53;;;32.35;40.75
34103;BME280;20381;54.498;18.206;2023-03-19T10:03:17;99569.48;;;32.48;40.43
34103;BME280;20381;54.498;18.206;2023-03-19T10:08:45;99570.05;;;32.91;39.36
34103;BME280;20381;54.498;18.206;2023-03-19T10:14:22;99579.18;;;33.95;38.34
34103;BME280;20381;54.498;18.206;2023-03-19T10:17:01;99579.76;;;33.97;37.56
34103;BME280;20381;54.498;18.206;2023-03-19T10:19:54;99571.02;;;34.23;36.87
34103;BME280;20381;54.498;18.206;2023-03-19T10:22:24;99579.58;;;34.71;36.64
34103;BME280;20381;54.498;18.206;2023-03-19T10:24:55;99575.97;;;35.62;36.18
34103;BME280;20381;54.498;18.206;2023-03-19T10:27:25;99572.55;;;36.52;35.70
34103;BME280;20381;54.498;18.206;2023-03-19T10:30:00;99567.33;;;37.38;35.37
34103;BME280;20381;54.498;18.206;2023-03-19T10:37:48;99566.92;;;38.74;32.99
34103;BME280;20381;54.498;18.206;2023-03-19T10:40:23;99563.35;;;38.71;32.13
34103;BME280;20381;54.498;18.206;2023-03-19T10:43:19;99560.75;;;38.52;31.50
34103;BME280;20381;54.498;18.206;2023-03-19T10:45:49;99557.14;;;37.28;30.59
34103;BME280;20381;54.498;18.206;2023-03-19T10:48:18;99567.66;;;35.42;29.78
34103;BME280;20381;54.498;18.206;2023-03-19T10:50:59;99560.44;;;34.98;29.54
34103;BME280;20381;54.498;18.206;2023-03-19T10:53:36;99559.36;;;36.13;29.34
34103;BME280;20381;54.498;18.206;2023-03-19T10:56:14;99553.23;;;37.85;29.20
34103;BME280;20381;54.498;18.206;2023-03-19T10:59:04;99558.30;;;39.32;28.77
34103;BME280;20381;54.498;18.206;2023-03-19T11:01:37;99559.19;;;40.78;28.79
34103;BME280;20381;54.498;18.206;2023-03-19T11:04:17;99552.34;;;41.76;28.06
34103;BME280;20381;54.498;18.206;2023-03-19T11:06:51;99555.38;;;40.74;25.67
34103;BME280;20381;54.498;18.206;2023-03-19T11:09:42;99564.70;;;38.68;24.62
34103;BME280;20381;54.498;18.206;2023-03-19T11:14:56;99562.14;;;32.39;23.75
34103;BME280;20381;54.498;18.206;2023-03-19T11:17:46;99562.19;;;30.69;24.56
34103;BME280;20381;54.498;18.206;2023-03-19T11:20:26;99561.48;;;30.71;24.67
34103;BME280;20381;54.498;18.206;2023-03-19T11:22:51;99552.45;;;32.72;24.17
34103;BME280;20381;54.498;18.206;2023-03-19T11:25:39;99553.86;;;33.71;24.51
34103;BME280;20381;54.498;18.206;2023-03-19T11:28:14;99551.98;;;34.97;24.07
34103;BME280;20381;54.498;18.206;2023-03-19T11:34:06;99541.41;;;37.13;24.23
34103;BME280;20381;54.498;18.206;2023-03-19T11:37:03;99543.89;;;38.03;23.82
34103;BME280;20381;54.498;18.206;2023-03-19T11:40:07;99544.10;;;38.26;23.44
34103;BME280;20381;54.498;18.206;2023-03-19T11:52:21;99533.58;;;37.83;21.22
34103;BME280;20381;54.498;18.206;2023-03-19T11:54:24;99541.16;;;35.73;20.61
34103;BME280;20381;54.498;18.206;2023-03-19T11:57:07;99538.69;;;35.08;21.07
34103;BME280;20381;54.498;18.206;2023-03-19T12:00:17;99541.38;;;36.12;21.66
34103;BME280;20381;54.498;18.206;2023-03-19T12:02:47;99538.15;;;36.97;21.79
34103;BME280;20381;54.498;18.206;2023-03-19T12:25:35;99509.73;;;36.88;21.66
34103;BME280;20381;54.498;18.206;2023-03-19T12:28:17;99515.05;;;37.82;21.54
34103;BME280;20381;54.498;18.206;2023-03-19T12:33:44;99509.36;;;37.87;21.42
34103;BME280;20381;54.498;18.206;2023-03-19T12:36:20;99506.28;;;35.27;20.96
34103;BME280;20381;54.498;18.206;2023-03-19T12:38:56;99510.01;;;35.12;21.42
34103;BME280;20381;54.498;18.206;2023-03-19T12:41:25;99499.07;;;35.07;21.33
34103;BME280;20381;54.498;18.206;2023-03-19T12:49:31;99501.76;;;32.27;21.74
34103;BME280;20381;54.498;18.206;2023-03-19T12:52:06;99505.02;;;30.47;21.54
34103;BME280;20381;54.498;18.206;2023-03-19T12:54:35;99504.66;;;28.71;22.12
34103;BME280;20381;54.498;18.206;2023-03-19T13:03:45;99517.20;;;25.10;22.60
34103;BME280;20381;54.498;18.206;2023-03-19T13:05:46;99515.08;;;24.32;23.13
34103;BME280;20381;54.498;18.206;2023-03-19T13:08:40;99512.24;;;23.62;23.51
34103;BME280;20381;54.498;18.206;2023-03-19T13:11:22;99512.88;;;23.18;23.88
34103;BME280;20381;54.498;18.206;2023-03-19T13:16:58;99511.77;;;22.76;24.20
34103;BME280;20381;54.498;18.206;2023-03-19T13:19:45;99505.64;;;22.36;25.02
34103;BME280;20381;54.498;18.206;2023-03-19T13:22:16;99505.83;;;22.21;25.00
34103;BME280;20381;54.498;18.206;2023-03-19T13:24:51;99512.56;;;21.97;26.56
34103;BME280;20381;54.498;18.206;2023-03-19T13:30:01;99516.75;;;21.54;26.80
34103;BME280;20381;54.498;18.206;2023-03-19T13:32:50;99512.39;;;21.39;26.98
34103;BME280;20381;54.498;18.206;2023-03-19T13:38:25;99504.91;;;21.01;27.71
34103;BME280;20381;54.498;18.206;2023-03-19T13:40:51;99510.11;;;20.84;27.81
34103;BME280;20381;54.498;18.206;2023-03-19T13:54:16;99509.77;;;19.05;29.41
34103;BME280;20381;54.498;18.206;2023-03-19T13:59:36;99518.14;;;17.54;32.58
34103;BME280;20381;54.498;18.206;2023-03-19T14:07:38;99517.70;;;16.74;34.00
34103;BME280;20381;54.498;18.206;2023-03-19T14:10:27;99516.61;;;16.71;34.40
34103;BME280;20381;54.498;18.206;2023-03-19T14:13:04;99515.55;;;16.74;34.41
34103;BME280;20381;54.498;18.206;2023-03-19T14:15:33;99506.78;;;16.62;34.71
34103;BME280;20381;54.498;18.206;2023-03-19T14:18:02;99513.97;;;16.25;35.29
34103;BME280;20381;54.498;18.206;2023-03-19T14:20:42;99508.20;;;15.96;35.94
34103;BME280;20381;54.498;18.206;2023-03-19T14:23:16;99514.30;;;15.72;36.94
34103;BME280;20381;54.498;18.206;2023-03-19T14:29:10;99517.98;;;15.88;37.68
34103;BME280;20381;54.498;18.206;2023-03-19T14:31:46;99507.27;;;15.97;37.60
34103;BME280;20381;54.498;18.206;2023-03-19T14:34:32;99507.48;;;15.94;37.32
34103;BME280;20381;54.498;18.206;2023-03-19T14:37:20;99513.84;;;15.78;38.31
34103;BME280;20381;54.498;18.206;2023-03-19T14:45:58;99501.97;;;15.60;39.55
34103;BME280;20381;54.498;18.206;2023-03-19T14:54:49;99499.70;;;15.42;41.90
34103;BME280;20381;54.498;18.206;2023-03-19T14:57:31;99500.66;;;15.41;42.00
34103;BME280;20381;54.498;18.206;2023-03-19T15:00:03;99498.55;;;15.47;43.02
34103;BME280;20381;54.498;18.206;2023-03-19T15:02:49;99502.98;;;15.33;43.17
34103;BME280;20381;54.498;18.206;2023-03-19T15:05:26;99499.56;;;15.38;43.23
34103;BME280;20381;54.498;18.206;2023-03-19T15:08:00;99504.92;;;15.37;43.49